This is the latest recevied weather packets stored in our database for station/object CT1ETE-13. If no packets are shown the sender has not sent any weather packets the latest 10 day(s).
| Time | Temp. | Humidity | Pressure | Rain* | Wind** | Luminosity | Snow |
|---|---|---|---|---|---|---|---|
| 1787926148 | 21.67° C | 72% | 1021.8 hPa | 0 mm | - | 1378 W/m² | - |
| 1787925248 | 21.67° C | 72% | 1021.9 hPa | 0 mm | - | 1375 W/m² | - |
| 1787924356 | 21.11° C | 76% | 1021.9 hPa | 0 mm | - | 1385 W/m² | - |
| 1787923446 | 20.56° C | 77% | 1022 hPa | 0 mm | - | 1390 W/m² | - |
| 1787922546 | 20.56° C | 78% | 1021.9 hPa | 0 mm | - | 1394 W/m² | - |
| 1787921644 | 20° C | 80% | 1021.9 hPa | 0 mm | - | 1401 W/m² | - |
| 1787920744 | 20° C | 78% | 1022 hPa | 0 mm | - | 1401 W/m² | - |
| 1787919844 | 20.56° C | 75% | 1021.8 hPa | 0 mm | - | 1390 W/m² | - |
| 1787918943 | 20.56° C | 78% | 1021.8 hPa | 0 mm | - | 1389 W/m² | - |
| 1787918042 | 20° C | 78% | 1021.8 hPa | 0 mm | - | 1392 W/m² | - |
| 1787917142 | 19.44° C | 80% | 1021.8 hPa | 0 mm | - | 1404 W/m² | - |
| 1787916242 | 19.44° C | 80% | 1021.8 hPa | 0 mm | - | 1406 W/m² | - |
| 1787915340 | 18.89° C | 83% | 1021.8 hPa | 0 mm | - | 1413 W/m² | - |
| 1787914437 | 18.33° C | 84% | 1021.8 hPa | 0 mm | - | 1422 W/m² | - |
| 1787913535 | 18.33° C | 84% | 1021.9 hPa | 0 mm | - | 1424 W/m² | - |
| 1787912692 | 17.78° C | 84% | 1021.8 hPa | 0 mm | - | 1426 W/m² | - |
| 1787911731 | 17.78° C | 84% | 1021.9 hPa | 0 mm | - | 1434 W/m² | - |
| 1787910832 | 17.22° C | 84% | 1021.8 hPa | 0 mm | - | 1440 W/m² | - |
| 1787909930 | 16.67° C | 83% | 1021.7 hPa | 0 mm | - | 1443 W/m² | - |
| 1787909030 | 16.67° C | 83% | 1021.3 hPa | 0 mm | - | 1445 W/m² | - |
| 1787908130 | 16.67° C | 83% | 1021.3 hPa | 0.25 mm | - | 1447 W/m² | - |
| 1787907230 | 16.11° C | 83% | 1021.2 hPa | 0.25 mm | - | 1448 W/m² | - |
| 1787906328 | 16.11° C | 84% | 1021.1 hPa | 0.25 mm | - | 1450 W/m² | - |
| 1787905425 | 16.11° C | 83% | 1020.8 hPa | 0.25 mm | - | 1450 W/m² | - |
| 1787904526 | 16.11° C | 84% | 1020.9 hPa | 0 mm | - | 1450 W/m² | - |
* Rain latest hour (hover to see other rain measurements)
** Current wind speed in m/s (hover to see current wind gust speed)